Aérodrome :
LOGIN :

S'inscrire | Disclaimer

   EN    FR    IT 

 










Légende :    VFR   VFR Marginal   IFR   IFR Intensif   IFR Très Intensif
Visi : 
Plafond : 
>= 8 km
>= 3000ft
5 à 8 km
1000 à 3000 ft
1500m à 5 km
500 à 1000 ft
800 à 1500m
200 à 500 ft
< 800m
< 200 ft
Symboles :   Orages  Brouillard  Fortes neiges  Fortes précipitations  Vent > 20 kt
SIGMETs :   Divers  Orages  Givrage  Turbulence  Onde Orograph.  Cendres Volcan.






- Altitude de l'aérodrome : 1071 ft
- Code IATA : LWO


UKLL - L'viv

DERNIER METAR :
  • 031530Z 29006MPS CAVOK 12/M04 Q1011 R31/CLRD// NOSIG

METARs EXPIRÉS :
  • 031500Z 30007MPS CAVOK 12/M04 Q1011 R31/D NOSIG
  • 031430Z 30007G12MPS CAVOK 13/M04 Q1011 R31/CLRD// NOSIG
  • 031400Z 29006MPS 250V330 CAVOK 13/M05 Q1010 R31/CLRD// NOSIG
  • 031330Z 29007MPS 260V320 CAVOK 13/M05 Q1010 R31/CLRD// NOSIG
  • 031300Z 30006MPS 270V330 CAVOK 13/M05 Q1010 R31/CLRD// NOSIG

TAF TAF UKLL
Valide du 03 à 12h jusqu'au 04 à 12h UTC


031103Z 0312/0412 25006G11MPS 9999 BKN025 TX14/0313Z TN00/0403Z
TEMPO 0312/0315 27009G14MPS
BECMG 0315/0317 29003MPS
TEMPO 0317/0406 VRB01MPS 2100 BR BKN007



MET'MAP, la Météo Aéronautique d'un coup d'oeil ! - Copyright ORBIFLY Décembre 2007 - Disclaimer

ORBIFLY MET'MAP TEAM :

Programmation & Développement : Alexandra Zaïnal
Sur une idée originale de : Baudouin d'Aumeries
Assistance à la programmation : Marc-Olivier Méhu
Soutien technique & logistique : Manuel Goepfert

Contact : metmap@orbifly.com




SOURCES & CREDITS :

   NOAA